createdAt,value
2018-08-24T00:01:07.149Z,0
2018-08-24T00:02:15.799Z,0
2018-08-24T00:03:24.438Z,0
2018-08-24T00:04:33.361Z,0
2018-08-24T00:05:42.266Z,0
2018-08-24T00:06:50.917Z,0
2018-08-24T00:07:59.555Z,0
2018-08-24T00:09:08.214Z,0
2018-08-24T00:10:16.853Z,0
2018-08-24T00:11:25.505Z,0
2018-08-24T00:12:34.143Z,0
2018-08-24T00:13:42.799Z,0
2018-08-24T00:14:51.445Z,0
2018-08-24T00:16:00.356Z,0
2018-08-24T00:17:08.997Z,0
2018-08-24T00:18:17.912Z,0
2018-08-24T00:19:26.560Z,0
2018-08-24T00:20:35.209Z,0
2018-08-24T00:21:43.859Z,0
2018-08-24T00:22:52.497Z,0
2018-08-24T00:24:01.150Z,0
2018-08-24T00:25:09.791Z,0
2018-08-24T00:26:18.455Z,0
2018-08-24T00:27:27.356Z,0
2018-08-24T00:28:36.006Z,0
2018-08-24T00:29:44.650Z,0
2018-08-24T00:30:53.310Z,0
2018-08-24T00:32:01.949Z,0
2018-08-24T00:33:10.597Z,0
2018-08-24T00:34:19.242Z,0
2018-08-24T00:35:28.166Z,0
2018-08-24T00:36:36.805Z,0
2018-08-24T00:37:45.486Z,0
2018-08-24T00:38:54.091Z,0
2018-08-24T00:40:02.737Z,0
2018-08-24T00:41:11.390Z,0
2018-08-24T00:42:20.033Z,0
2018-08-24T00:43:28.684Z,0
2018-08-24T00:44:37.321Z,0
2018-08-24T00:45:45.980Z,0
2018-08-24T00:46:54.621Z,0
2018-08-24T00:48:03.273Z,0
2018-08-24T00:49:11.910Z,0
2018-08-24T00:50:20.566Z,0
2018-08-24T00:51:29.211Z,0
2018-08-24T00:52:37.860Z,0
2018-08-24T00:53:46.495Z,0
2018-08-24T00:54:55.144Z,0
2018-08-24T00:56:03.796Z,0
2018-08-24T00:57:12.719Z,0
2018-08-24T00:58:21.631Z,0
2018-08-24T00:59:30.267Z,0
2018-08-24T01:00:38.920Z,0
2018-08-24T01:01:47.563Z,0
2018-08-24T01:02:56.481Z,0
2018-08-24T01:04:05.120Z,0
2018-08-24T01:05:13.772Z,0
2018-08-24T01:06:22.416Z,0
2018-08-24T01:07:31.380Z,0
2018-08-24T01:08:40.006Z,0
2018-08-24T01:09:48.652Z,0
2018-08-24T01:10:57.297Z,0
2018-08-24T01:12:05.953Z,0
2018-08-24T01:13:14.865Z,0
2018-08-24T01:14:23.506Z,0
2018-08-24T01:15:32.149Z,0
2018-08-24T01:16:40.795Z,0
2018-08-24T01:17:49.450Z,0
2018-08-24T01:18:58.092Z,0
2018-08-24T01:20:06.743Z,0
2018-08-24T01:21:15.377Z,0
2018-08-24T01:22:24.032Z,0
2018-08-24T01:23:32.673Z,0
2018-08-24T01:24:41.327Z,0
2018-08-24T01:25:49.967Z,0
2018-08-24T01:26:58.624Z,0
2018-08-24T01:28:07.535Z,0
2018-08-24T01:29:16.181Z,0
2018-08-24T01:30:24.823Z,0
2018-08-24T01:31:33.734Z,0
2018-08-24T01:32:42.639Z,0
2018-08-24T01:33:51.554Z,0
2018-08-24T01:35:00.202Z,0
2018-08-24T01:36:08.844Z,0
2018-08-24T01:37:17.490Z,0
2018-08-24T01:38:26.139Z,0
2018-08-24T01:39:34.797Z,0
2018-08-24T01:40:43.434Z,0
2018-08-24T01:41:52.082Z,0
2018-08-24T01:43:00.726Z,0
2018-08-24T01:44:09.377Z,0
2018-08-24T01:45:18.020Z,0
2018-08-24T01:46:26.671Z,0
2018-08-24T01:47:35.316Z,0
2018-08-24T01:48:43.971Z,0
2018-08-24T01:49:52.613Z,0
2018-08-24T01:51:01.259Z,0
2018-08-24T01:52:09.904Z,0
2018-08-24T01:53:19.073Z,0
2018-08-24T01:54:27.731Z,0
2018-08-24T01:55:36.381Z,0
2018-08-24T01:56:45.305Z,0
2018-08-24T01:57:53.944Z,0
2018-08-24T01:59:02.897Z,0
2018-08-24T02:00:11.525Z,0
2018-08-24T02:01:20.172Z,0
2018-08-24T02:02:28.815Z,0
2018-08-24T02:03:37.466Z,0
2018-08-24T02:04:46.110Z,0
2018-08-24T02:05:54.757Z,0
2018-08-24T02:07:03.400Z,0
2018-08-24T02:08:12.050Z,0
2018-08-24T02:09:20.695Z,0
2018-08-24T02:10:29.608Z,0
2018-08-24T02:11:38.263Z,0
2018-08-24T02:12:46.900Z,0
2018-08-24T02:13:55.554Z,0
2018-08-24T02:15:04.200Z,0
2018-08-24T02:16:12.852Z,0
2018-08-24T02:17:21.492Z,0
2018-08-24T02:18:30.139Z,0
2018-08-24T02:19:38.787Z,0
2018-08-24T02:20:47.439Z,0
2018-08-24T02:21:56.080Z,0
2018-08-24T02:23:04.725Z,0
2018-08-24T02:24:13.369Z,0
2018-08-24T02:25:22.021Z,0
2018-08-24T02:26:30.665Z,0
2018-08-24T02:27:39.579Z,0
2018-08-24T02:28:48.492Z,0
2018-08-24T02:29:57.137Z,0
2018-08-24T02:31:05.805Z,0
2018-08-24T02:32:14.719Z,0
2018-08-24T02:33:23.344Z,0
2018-08-24T02:34:31.994Z,0
2018-08-24T02:35:40.648Z,0
2018-08-24T02:36:49.561Z,0
2018-08-24T02:37:58.207Z,0
2018-08-24T02:39:06.859Z,0
2018-08-24T02:40:15.503Z,0
2018-08-24T02:41:24.414Z,0
2018-08-24T02:42:33.058Z,0
2018-08-24T02:43:41.705Z,0
2018-08-24T02:44:50.352Z,0
2018-08-24T02:45:59.255Z,0
2018-08-24T02:47:07.900Z,0
2018-08-24T02:48:16.548Z,0
2018-08-24T02:49:25.495Z,0
2018-08-24T02:50:34.107Z,0
2018-08-24T02:51:42.754Z,0
2018-08-24T02:52:51.399Z,0
2018-08-24T02:54:00.049Z,0
2018-08-24T02:55:08.699Z,0
2018-08-24T02:56:17.350Z,0
2018-08-24T02:57:25.993Z,0
2018-08-24T02:58:34.916Z,0
2018-08-24T02:59:43.566Z,0
2018-08-24T03:00:52.496Z,0
2018-08-24T03:02:01.400Z,0
2018-08-24T03:03:10.047Z,0
2018-08-24T03:04:18.965Z,0
2018-08-24T03:05:28.659Z,0
2018-08-24T03:06:37.920Z,0
2018-08-24T03:07:46.561Z,0
2018-08-24T03:08:55.213Z,0
2018-08-24T03:10:03.860Z,0
2018-08-24T03:11:12.511Z,0
2018-08-24T03:12:21.157Z,0
2018-08-24T03:13:29.800Z,0
2018-08-24T03:14:38.449Z,0
2018-08-24T03:15:47.102Z,0
2018-08-24T03:16:55.740Z,0
2018-08-24T03:18:04.392Z,0
2018-08-24T03:19:13.036Z,0
2018-08-24T03:20:21.948Z,0
2018-08-24T03:21:30.591Z,0
2018-08-24T03:22:39.237Z,0
2018-08-24T03:23:47.874Z,0
2018-08-24T03:24:56.518Z,0
2018-08-24T03:26:05.169Z,0
2018-08-24T03:27:13.814Z,0
2018-08-24T03:28:22.470Z,0
2018-08-24T03:29:31.105Z,0
2018-08-24T03:30:39.774Z,0
2018-08-24T03:31:48.407Z,0
2018-08-24T03:32:57.059Z,0
2018-08-24T03:34:05.957Z,0
2018-08-24T03:35:14.616Z,0
2018-08-24T03:36:23.256Z,0
2018-08-24T03:37:31.906Z,0
2018-08-24T03:38:40.541Z,0
2018-08-24T03:39:49.192Z,0
2018-08-24T03:40:57.841Z,0
2018-08-24T03:42:06.490Z,0
2018-08-24T03:43:15.137Z,0
2018-08-24T03:44:23.772Z,0
2018-08-24T03:45:32.423Z,0
2018-08-24T03:46:41.064Z,0
2018-08-24T03:47:50.265Z,0
2018-08-24T03:48:59.423Z,0
2018-08-24T03:50:08.077Z,0
2018-08-24T03:51:16.722Z,0
2018-08-24T03:52:25.379Z,0
2018-08-24T03:53:34.018Z,0
2018-08-24T03:54:42.663Z,0
2018-08-24T03:55:51.307Z,0
2018-08-24T03:56:59.961Z,0
2018-08-24T03:58:08.870Z,0
2018-08-24T03:59:17.511Z,0
2018-08-24T04:00:26.156Z,0
2018-08-24T04:01:34.800Z,0
2018-08-24T04:02:43.457Z,0
2018-08-24T04:03:52.364Z,0
2018-08-24T04:05:01.017Z,0
2018-08-24T04:06:09.916Z,0
2018-08-24T04:07:18.577Z,0
2018-08-24T04:08:27.475Z,0
2018-08-24T04:09:36.127Z,0
2018-08-24T04:10:45.026Z,0
2018-08-24T04:11:53.686Z,0
2018-08-24T04:13:02.329Z,0
2018-08-24T04:14:10.977Z,0
2018-08-24T04:15:19.616Z,0
2018-08-24T04:16:28.266Z,0
2018-08-24T04:17:36.917Z,0
2018-08-24T04:18:45.566Z,0
2018-08-24T04:19:54.490Z,0
2018-08-24T04:21:03.387Z,0
2018-08-24T04:22:12.299Z,0
2018-08-24T04:23:20.947Z,0
2018-08-24T04:24:29.601Z,0
2018-08-24T04:25:38.287Z,0
2018-08-24T04:26:46.886Z,0
2018-08-24T04:27:55.530Z,0
2018-08-24T04:29:04.181Z,5
2018-08-24T04:30:12.822Z,5
2018-08-24T04:31:21.468Z,5
2018-08-24T04:32:30.676Z,5
2018-08-24T04:33:39.329Z,10
2018-08-24T04:34:48.267Z,10
2018-08-24T04:35:56.880Z,10
2018-08-24T04:37:05.523Z,10
2018-08-24T04:38:14.431Z,15
2018-08-24T04:39:23.349Z,15
2018-08-24T04:40:31.993Z,15
2018-08-24T04:41:40.638Z,15
2018-08-24T04:42:49.277Z,20
2018-08-24T04:43:57.927Z,20
2018-08-24T04:45:06.575Z,20
2018-08-24T04:46:15.759Z,20
2018-08-24T04:47:24.664Z,20
2018-08-24T04:48:33.322Z,20
2018-08-24T04:49:42.225Z,20
2018-08-24T04:50:50.871Z,20
2018-08-24T04:51:59.786Z,15
2018-08-24T04:53:08.700Z,15
2018-08-24T04:54:17.618Z,15
2018-08-24T04:55:26.269Z,15
2018-08-24T04:56:35.455Z,20
2018-08-24T04:57:44.097Z,20
2018-08-24T04:58:53.013Z,20
2018-08-24T05:00:01.660Z,20
2018-08-24T05:01:10.306Z,20
2018-08-24T05:02:18.948Z,25
2018-08-24T05:03:27.856Z,25
2018-08-24T05:04:36.768Z,25
2018-08-24T05:05:45.974Z,25
2018-08-24T05:06:54.521Z,25
2018-08-24T05:08:03.476Z,25
2018-08-24T05:09:12.115Z,25
2018-08-24T05:10:20.772Z,25
2018-08-24T05:11:29.415Z,25
2018-08-24T05:12:38.331Z,25
2018-08-24T05:13:47.006Z,30
2018-08-24T05:14:55.649Z,30
2018-08-24T05:16:04.303Z,30
2018-08-24T05:17:12.957Z,30
2018-08-24T05:18:21.594Z,30
2018-08-24T05:19:30.237Z,35
2018-08-24T05:20:38.885Z,35
2018-08-24T05:21:47.939Z,35
2018-08-24T05:22:56.583Z,40
2018-08-24T05:24:05.221Z,40
2018-08-24T05:25:13.879Z,40
2018-08-24T05:26:22.523Z,40
2018-08-24T05:27:31.172Z,40
2018-08-24T05:28:39.814Z,45
2018-08-24T05:29:48.475Z,45
2018-08-24T05:30:57.127Z,45
2018-08-24T05:32:05.775Z,45
2018-08-24T05:33:14.464Z,45
2018-08-24T05:34:23.058Z,45
2018-08-24T05:35:31.803Z,45
2018-08-24T05:36:40.619Z,45
2018-08-24T05:37:49.273Z,45
2018-08-24T05:38:57.937Z,45
2018-08-24T05:40:06.857Z,45
2018-08-24T05:41:15.556Z,45
2018-08-24T05:42:24.154Z,45
2018-08-24T05:43:32.788Z,45
2018-08-24T05:44:41.438Z,45
2018-08-24T05:45:50.081Z,40
2018-08-24T05:46:58.740Z,40
2018-08-24T05:48:07.661Z,40
2018-08-24T05:49:16.566Z,45
2018-08-24T05:50:25.739Z,45
2018-08-24T05:51:34.648Z,50
2018-08-24T05:52:43.303Z,50
2018-08-24T05:53:51.948Z,55
2018-08-24T05:55:00.869Z,60
2018-08-24T05:56:09.506Z,60
2018-08-24T05:57:18.162Z,60
2018-08-24T05:58:26.805Z,60
2018-08-24T05:59:35.453Z,60
2018-08-24T06:00:44.094Z,60
2018-08-24T06:01:53.014Z,65
2018-08-24T06:03:01.663Z,65
2018-08-24T06:04:10.575Z,65
2018-08-24T06:05:19.212Z,65
2018-08-24T06:06:28.128Z,70
2018-08-24T06:07:36.778Z,75
2018-08-24T06:08:45.692Z,75
2018-08-24T06:09:54.338Z,75
2018-08-24T06:11:03.236Z,85
2018-08-24T06:12:12.163Z,85
2018-08-24T06:13:20.805Z,80
2018-08-24T06:14:29.458Z,60
2018-08-24T06:15:38.097Z,60
2018-08-24T06:16:46.940Z,55
2018-08-24T06:17:55.480Z,45
2018-08-24T06:19:04.200Z,40
2018-08-24T06:20:12.773Z,35
2018-08-24T06:21:21.423Z,35
2018-08-24T06:22:30.076Z,40
2018-08-24T06:23:38.712Z,35
2018-08-24T06:24:47.361Z,50
2018-08-24T06:25:56.020Z,50
2018-08-24T06:27:04.671Z,50
2018-08-24T06:28:13.343Z,45
2018-08-24T06:29:21.983Z,60
2018-08-24T06:30:30.897Z,70
2018-08-24T06:31:39.540Z,70
2018-08-24T06:32:48.210Z,60
2018-08-24T06:33:56.832Z,45
2018-08-24T06:35:05.503Z,45
2018-08-24T06:36:14.145Z,50
2018-08-24T06:37:23.048Z,50
2018-08-24T06:38:31.741Z,55
2018-08-24T06:39:40.494Z,75
2018-08-24T06:40:49.509Z,70
2018-08-24T06:41:58.265Z,75
2018-08-24T06:43:07.083Z,105
2018-08-24T06:44:15.727Z,120
2018-08-24T06:45:24.375Z,130
2018-08-24T06:46:33.016Z,140
2018-08-24T06:47:41.751Z,140
2018-08-24T06:48:50.315Z,155
2018-08-24T06:49:58.966Z,155
2018-08-24T06:51:07.604Z,145
2018-08-24T06:52:16.263Z,135
2018-08-24T06:53:25.148Z,130
2018-08-24T06:54:33.817Z,125
2018-08-24T06:55:42.454Z,105
2018-08-24T06:56:51.109Z,95
2018-08-24T06:57:59.752Z,85
2018-08-24T06:59:08.403Z,90
2018-08-24T07:00:17.040Z,85
2018-08-24T07:01:25.754Z,70
2018-08-24T07:02:34.404Z,75
2018-08-24T07:03:43.053Z,80
2018-08-24T07:04:51.701Z,85
2018-08-24T07:06:00.341Z,90
2018-08-24T07:07:08.992Z,90
2018-08-24T07:08:17.635Z,85
2018-08-24T07:09:26.299Z,80
2018-08-24T07:10:34.941Z,75
2018-08-24T07:11:43.591Z,70
2018-08-24T07:12:52.263Z,65
2018-08-24T07:14:00.896Z,55
2018-08-24T07:15:09.535Z,50
2018-08-24T07:16:18.493Z,55
2018-08-24T07:17:27.139Z,75
2018-08-24T07:18:35.796Z,95
2018-08-24T07:19:44.445Z,110
2018-08-24T07:20:53.355Z,120
2018-08-24T07:22:02.003Z,120
2018-08-24T07:23:10.648Z,115
2018-08-24T07:24:19.299Z,115
2018-08-24T07:25:27.984Z,115
2018-08-24T07:26:36.590Z,120
2018-08-24T07:27:45.233Z,120
2018-08-24T07:28:53.883Z,125
2018-08-24T07:30:02.534Z,135
2018-08-24T07:31:11.447Z,135
2018-08-24T07:32:20.350Z,140
2018-08-24T07:33:29.003Z,145
2018-08-24T07:34:37.648Z,150
2018-08-24T07:35:46.301Z,150
2018-08-24T07:36:54.946Z,155
2018-08-24T07:38:03.594Z,155
2018-08-24T07:39:12.506Z,145
2018-08-24T07:40:21.155Z,110
2018-08-24T07:41:30.340Z,100
2018-08-24T07:42:38.914Z,125
2018-08-24T07:43:47.566Z,105
2018-08-24T07:44:56.220Z,135
2018-08-24T07:46:04.871Z,150
2018-08-24T07:47:13.512Z,140
2018-08-24T07:48:22.165Z,160
2018-08-24T07:49:30.811Z,135
2018-08-24T07:50:39.481Z,130
2018-08-24T07:51:48.104Z,120
2018-08-24T07:52:56.753Z,110
2018-08-24T07:54:05.660Z,85
2018-08-24T07:55:14.313Z,70
2018-08-24T07:56:22.957Z,75
2018-08-24T07:57:31.608Z,60
2018-08-24T07:58:40.247Z,65
2018-08-24T07:59:48.890Z,70
2018-08-24T08:00:57.802Z,80
2018-08-24T08:02:06.450Z,90
2018-08-24T08:03:15.099Z,65
2018-08-24T08:04:23.745Z,70
2018-08-24T08:05:32.399Z,75
2018-08-24T08:06:41.045Z,75
2018-08-24T08:07:49.696Z,70
2018-08-24T08:08:58.340Z,85
2018-08-24T08:10:06.996Z,105
2018-08-24T08:11:15.644Z,110
2018-08-24T08:12:24.306Z,115
2018-08-24T08:13:32.933Z,115
2018-08-24T08:14:41.856Z,110
2018-08-24T08:15:50.503Z,100
2018-08-24T08:16:59.151Z,90
2018-08-24T08:18:08.159Z,80
2018-08-24T08:19:16.758Z,85
2018-08-24T08:20:25.661Z,100
2018-08-24T08:21:34.312Z,105
2018-08-24T08:22:43.477Z,100
2018-08-24T08:23:52.134Z,95
2018-08-24T08:25:00.782Z,85
2018-08-24T08:26:09.432Z,90
2018-08-24T08:27:18.329Z,100
2018-08-24T08:28:26.992Z,135
2018-08-24T08:29:35.895Z,150
2018-08-24T08:30:44.546Z,145
2018-08-24T08:31:53.186Z,140
2018-08-24T08:33:01.835Z,145
2018-08-24T08:34:10.486Z,155
2018-08-24T08:35:19.402Z,165
2018-08-24T08:36:28.054Z,175
2018-08-24T08:37:36.690Z,175
2018-08-24T08:38:45.342Z,190
2018-08-24T08:39:53.984Z,185
2018-08-24T08:41:02.638Z,180
2018-08-24T08:42:11.282Z,285
2018-08-24T08:43:19.929Z,265
2018-08-24T08:44:28.573Z,235
2018-08-24T08:45:37.228Z,225
2018-08-24T08:46:45.866Z,235
2018-08-24T08:47:54.532Z,250
2018-08-24T08:49:03.180Z,185
2018-08-24T08:50:12.100Z,160
2018-08-24T08:51:20.743Z,160
2018-08-24T08:52:29.404Z,150
2018-08-24T08:53:38.450Z,170
2018-08-24T08:54:47.363Z,195
2018-08-24T08:55:56.020Z,230
2018-08-24T08:57:04.666Z,180
2018-08-24T08:58:13.318Z,175
2018-08-24T08:59:21.977Z,205
2018-08-24T09:00:30.907Z,240
2018-08-24T09:01:39.551Z,235
2018-08-24T09:02:48.204Z,225
2018-08-24T09:03:56.842Z,225
2018-08-24T09:05:05.500Z,230
2018-08-24T09:06:14.186Z,225
2018-08-24T09:07:22.793Z,235
2018-08-24T09:08:31.710Z,225
2018-08-24T09:09:40.361Z,200
2018-08-24T09:10:49.281Z,195
2018-08-24T09:11:57.929Z,205
2018-08-24T09:13:06.598Z,225
2018-08-24T09:14:15.235Z,195
2018-08-24T09:15:23.881Z,165
2018-08-24T09:16:32.525Z,185
2018-08-24T09:17:41.182Z,220
2018-08-24T09:18:49.826Z,225
2018-08-24T09:19:58.741Z,170
2018-08-24T09:21:07.390Z,135
2018-08-24T09:22:16.042Z,145
2018-08-24T09:23:24.683Z,150
2018-08-24T09:24:33.333Z,150
2018-08-24T09:25:42.385Z,170
2018-08-24T09:26:50.950Z,140
2018-08-24T09:27:59.857Z,120
2018-08-24T09:29:08.505Z,110
2018-08-24T09:30:19.664Z,110
2018-08-24T09:31:28.649Z,110
2018-08-24T09:32:37.832Z,120
2018-08-24T09:33:47.595Z,185
2018-08-24T09:34:56.268Z,220
2018-08-24T09:36:04.909Z,275
2018-08-24T09:37:13.658Z,330
2018-08-24T09:38:22.313Z,335
2018-08-24T09:39:30.956Z,285
2018-08-24T09:40:39.599Z,295
2018-08-24T09:41:48.525Z,285
2018-08-24T09:42:57.220Z,185
2018-08-24T09:44:05.844Z,175
2018-08-24T09:45:14.490Z,160
2018-08-24T09:46:23.140Z,150
2018-08-24T09:47:31.873Z,130
2018-08-24T09:48:40.624Z,145
2018-08-24T09:49:49.273Z,225
2018-08-24T09:50:57.917Z,175
2018-08-24T09:52:06.565Z,205
2018-08-24T09:53:15.214Z,160
2018-08-24T09:54:24.132Z,140
2018-08-24T09:55:32.772Z,180
2018-08-24T09:56:41.423Z,135
2018-08-24T09:57:50.070Z,190
2018-08-24T09:58:58.725Z,195
2018-08-24T10:00:07.371Z,210
2018-08-24T10:01:16.018Z,235
2018-08-24T10:02:24.681Z,255
2018-08-24T10:03:33.625Z,255
2018-08-24T10:04:42.272Z,280
2018-08-24T10:05:50.921Z,320
2018-08-24T10:06:59.834Z,355
2018-08-24T10:08:08.482Z,330
2018-08-24T10:09:17.402Z,325
2018-08-24T10:10:26.367Z,310
2018-08-24T10:11:35.675Z,315
2018-08-24T10:12:44.714Z,310
2018-08-24T10:13:53.366Z,285
2018-08-24T10:15:02.072Z,250
2018-08-24T10:16:10.986Z,245
2018-08-24T10:17:19.839Z,250
2018-08-24T10:18:28.753Z,240
2018-08-24T10:19:37.405Z,175
2018-08-24T10:20:46.050Z,160
2018-08-24T10:21:54.704Z,160
2018-08-24T10:23:03.379Z,180
2018-08-24T10:24:12.014Z,170
2018-08-24T10:25:20.956Z,220
2018-08-24T10:26:29.602Z,125
2018-08-24T10:27:38.259Z,120
2018-08-24T10:28:46.928Z,105
2018-08-24T10:29:55.576Z,105
2018-08-24T10:31:04.222Z,180
2018-08-24T10:32:12.875Z,105
2018-08-24T10:33:21.526Z,110
2018-08-24T10:34:30.179Z,130
2018-08-24T10:35:39.088Z,135
2018-08-24T10:36:48.062Z,145
2018-08-24T10:37:56.690Z,220
2018-08-24T10:39:05.887Z,160
2018-08-24T10:40:14.804Z,175
2018-08-24T10:41:23.455Z,165
2018-08-24T10:42:32.364Z,180
2018-08-24T10:43:41.022Z,190
2018-08-24T10:44:49.935Z,160
2018-08-24T10:45:58.579Z,145
2018-08-24T10:47:07.246Z,135
2018-08-24T10:48:15.883Z,130
2018-08-24T10:49:25.004Z,120
2018-08-24T10:50:33.593Z,120
2018-08-24T10:51:42.614Z,120
2018-08-24T10:52:51.264Z,130
2018-08-24T10:53:59.914Z,145
2018-08-24T10:55:08.558Z,145
2018-08-24T10:56:17.557Z,190
2018-08-24T10:57:26.656Z,255
2018-08-24T10:58:35.307Z,290
2018-08-24T10:59:43.955Z,290
2018-08-24T11:00:52.609Z,350
2018-08-24T11:02:01.329Z,245
2018-08-24T11:03:10.171Z,190
2018-08-24T11:04:18.822Z,280
2018-08-24T11:05:27.495Z,160
2018-08-24T11:06:36.122Z,135
2018-08-24T11:07:44.858Z,125
2018-08-24T11:08:53.425Z,115
2018-08-24T11:10:02.384Z,110
2018-08-24T11:11:11.032Z,115
2018-08-24T11:12:19.677Z,205
2018-08-24T11:13:28.329Z,205
2018-08-24T11:14:36.973Z,210
2018-08-24T11:15:45.657Z,245
2018-08-24T11:16:54.698Z,260
2018-08-24T11:18:03.301Z,270
2018-08-24T11:19:11.954Z,290
2018-08-24T11:20:20.602Z,270
2018-08-24T11:21:29.250Z,250
2018-08-24T11:22:37.904Z,245
2018-08-24T11:23:46.557Z,265
2018-08-24T11:24:55.200Z,295
2018-08-24T11:26:03.901Z,295
2018-08-24T11:27:12.502Z,285
2018-08-24T11:28:21.424Z,255
2018-08-24T11:29:30.075Z,250
2018-08-24T11:30:38.733Z,255
2018-08-24T11:31:47.370Z,240
2018-08-24T11:32:56.087Z,255
2018-08-24T11:34:04.791Z,275
2018-08-24T11:35:13.703Z,270
2018-08-24T11:36:22.398Z,275
2018-08-24T11:37:31.055Z,290
2018-08-24T11:38:39.701Z,245
2018-08-24T11:39:48.350Z,250
2018-08-24T11:40:57.006Z,235
2018-08-24T11:42:05.730Z,240
2018-08-24T11:43:14.308Z,260
2018-08-24T11:44:22.949Z,265
2018-08-24T11:45:31.610Z,180
2018-08-24T11:46:40.254Z,200
2018-08-24T11:47:48.965Z,305
2018-08-24T11:48:57.810Z,290
2018-08-24T11:50:06.471Z,260
2018-08-24T11:51:15.118Z,240
2018-08-24T11:52:23.770Z,225
2018-08-24T11:53:32.674Z,215
2018-08-24T11:54:41.329Z,235
2018-08-24T11:55:50.550Z,195
2018-08-24T11:56:59.234Z,230
2018-08-24T11:58:07.890Z,230
2018-08-24T11:59:16.793Z,230
2018-08-24T12:00:25.447Z,225
2018-08-24T12:01:34.092Z,225
2018-08-24T12:02:42.757Z,225
2018-08-24T12:03:51.392Z,235
2018-08-24T12:05:00.046Z,215
2018-08-24T12:06:08.690Z,220
2018-08-24T12:07:17.349Z,215
2018-08-24T12:08:26.043Z,190
2018-08-24T12:09:34.643Z,235
2018-08-24T12:10:43.556Z,240
2018-08-24T12:11:52.214Z,245
2018-08-24T12:13:01.121Z,265
2018-08-24T12:14:09.796Z,205
2018-08-24T12:15:18.415Z,285
2018-08-24T12:16:27.061Z,205
2018-08-24T12:17:35.740Z,195
2018-08-24T12:18:44.367Z,210
2018-08-24T12:19:53.023Z,235
2018-08-24T12:21:01.932Z,320
2018-08-24T12:22:10.589Z,210
2018-08-24T12:23:19.238Z,195
2018-08-24T12:24:28.244Z,200
2018-08-24T12:25:37.077Z,200
2018-08-24T12:26:45.727Z,185
2018-08-24T12:27:54.376Z,180
2018-08-24T12:29:03.031Z,180
2018-08-24T12:30:11.687Z,180
2018-08-24T12:31:20.338Z,185
2018-08-24T12:32:28.989Z,185
2018-08-24T12:33:37.713Z,185
2018-08-24T12:34:46.353Z,230
2018-08-24T12:35:54.937Z,205
2018-08-24T12:37:03.585Z,275
2018-08-24T12:38:12.324Z,255
2018-08-24T12:39:20.889Z,235
2018-08-24T12:40:29.531Z,225
2018-08-24T12:41:38.185Z,215
2018-08-24T12:42:46.830Z,210
2018-08-24T12:43:55.485Z,210
2018-08-24T12:45:04.400Z,200
2018-08-24T12:46:13.321Z,200
2018-08-24T12:47:22.232Z,200
2018-08-24T12:48:30.885Z,200
2018-08-24T12:49:39.803Z,195
2018-08-24T12:50:48.449Z,200
2018-08-24T12:51:57.103Z,195
2018-08-24T12:53:05.755Z,195
2018-08-24T12:54:14.722Z,200
2018-08-24T12:55:23.371Z,205
2018-08-24T12:56:32.021Z,215
2018-08-24T12:57:40.925Z,215
2018-08-24T12:58:49.842Z,220
2018-08-24T12:59:58.783Z,235
2018-08-24T13:01:07.402Z,260
2018-08-24T13:02:16.048Z,270
2018-08-24T13:03:24.700Z,280
2018-08-24T13:04:33.347Z,300
2018-08-24T13:05:41.999Z,310
2018-08-24T13:06:50.643Z,315
2018-08-24T13:07:59.297Z,330
2018-08-24T13:09:07.947Z,320
2018-08-24T13:10:16.601Z,300
2018-08-24T13:11:25.570Z,275
2018-08-24T13:12:34.217Z,175
2018-08-24T13:13:42.872Z,250
2018-08-24T13:14:51.518Z,155
2018-08-24T13:16:00.177Z,170
2018-08-24T13:17:08.818Z,190
2018-08-24T13:18:17.470Z,190
2018-08-24T13:19:26.117Z,200
2018-08-24T13:20:34.778Z,200
2018-08-24T13:21:43.424Z,235
2018-08-24T13:22:52.076Z,250
2018-08-24T13:24:00.994Z,265
2018-08-24T13:25:09.648Z,290
2018-08-24T13:26:18.302Z,275
2018-08-24T13:27:26.993Z,265
2018-08-24T13:28:35.593Z,205
2018-08-24T13:29:44.242Z,200
2018-08-24T13:30:53.163Z,185
2018-08-24T13:32:01.807Z,200
2018-08-24T13:33:10.462Z,225
2018-08-24T13:34:19.103Z,230
2018-08-24T13:35:27.759Z,255
2018-08-24T13:36:36.666Z,245
2018-08-24T13:37:45.320Z,235
2018-08-24T13:38:53.971Z,220
2018-08-24T13:40:02.619Z,220
2018-08-24T13:41:11.267Z,230
2018-08-24T13:42:19.919Z,215
2018-08-24T13:43:28.558Z,215
2018-08-24T13:44:37.475Z,225
2018-08-24T13:45:46.128Z,230
2018-08-24T13:46:54.781Z,250
2018-08-24T13:48:03.431Z,265
2018-08-24T13:49:12.071Z,270
2018-08-24T13:50:20.730Z,280
2018-08-24T13:51:29.382Z,290
2018-08-24T13:52:38.043Z,285
2018-08-24T13:53:46.687Z,270
2018-08-24T13:54:56.009Z,280
2018-08-24T13:56:04.664Z,285
2018-08-24T13:57:13.310Z,270
2018-08-24T13:58:21.956Z,270
2018-08-24T13:59:30.712Z,280
2018-08-24T14:00:39.253Z,290
2018-08-24T14:01:47.910Z,285
2018-08-24T14:02:56.557Z,280
2018-08-24T14:04:05.201Z,285
2018-08-24T14:05:14.145Z,285
2018-08-24T14:06:22.770Z,285
2018-08-24T14:07:31.430Z,290
2018-08-24T14:08:40.075Z,295
2018-08-24T14:09:48.731Z,295
2018-08-24T14:10:57.371Z,290
2018-08-24T14:12:06.025Z,290
2018-08-24T14:13:15.160Z,285
2018-08-24T14:14:23.754Z,290
2018-08-24T14:15:32.418Z,280
2018-08-24T14:16:41.058Z,270
2018-08-24T14:17:49.707Z,280
2018-08-24T14:18:58.355Z,280
2018-08-24T14:20:07.282Z,280
2018-08-24T14:21:16.220Z,265
2018-08-24T14:22:24.863Z,260
2018-08-24T14:23:33.508Z,255
2018-08-24T14:24:42.155Z,260
2018-08-24T14:25:50.820Z,260
2018-08-24T14:26:59.466Z,260
2018-08-24T14:28:08.383Z,255
2018-08-24T14:29:17.022Z,255
2018-08-24T14:30:25.679Z,260
2018-08-24T14:31:34.334Z,255
2018-08-24T14:32:42.980Z,255
2018-08-24T14:33:51.624Z,250
2018-08-24T14:35:00.547Z,250
2018-08-24T14:36:09.459Z,250
2018-08-24T14:37:18.110Z,245
2018-08-24T14:38:27.167Z,245
2018-08-24T14:39:35.826Z,240
2018-08-24T14:40:44.472Z,240
2018-08-24T14:41:53.124Z,240
2018-08-24T14:43:01.777Z,235
2018-08-24T14:44:10.416Z,230
2018-08-24T14:45:19.068Z,220
2018-08-24T14:46:27.714Z,220
2018-08-24T14:47:36.370Z,215
2018-08-24T14:48:45.011Z,210
2018-08-24T14:49:53.662Z,200
2018-08-24T14:51:02.574Z,195
2018-08-24T14:52:11.227Z,205
2018-08-24T14:53:19.866Z,210
2018-08-24T14:54:28.520Z,205
2018-08-24T14:55:37.172Z,215
2018-08-24T14:56:45.830Z,210
2018-08-24T14:57:54.740Z,190
2018-08-24T14:59:03.385Z,180
2018-08-24T15:00:12.032Z,185
2018-08-24T15:01:20.683Z,175
2018-08-24T15:02:29.345Z,155
2018-08-24T15:03:38.251Z,130
2018-08-24T15:04:47.169Z,120
2018-08-24T15:05:55.810Z,105
2018-08-24T15:07:04.470Z,95
2018-08-24T15:08:13.111Z,80
2018-08-24T15:09:21.769Z,75
2018-08-24T15:10:30.683Z,70
2018-08-24T15:11:39.605Z,70
2018-08-24T15:12:48.508Z,80
2018-08-24T15:13:57.165Z,85
2018-08-24T15:15:05.809Z,85
2018-08-24T15:16:14.459Z,80
2018-08-24T15:17:23.418Z,80
2018-08-24T15:18:32.333Z,80
2018-08-24T15:19:40.984Z,85
2018-08-24T15:20:49.629Z,75
2018-08-24T15:21:58.277Z,75
2018-08-24T15:23:06.993Z,75
2018-08-24T15:24:15.578Z,75
2018-08-24T15:25:24.221Z,80
2018-08-24T15:26:32.870Z,85
2018-08-24T15:27:41.782Z,95
2018-08-24T15:28:50.702Z,110
2018-08-24T15:30:00.260Z,130
2018-08-24T15:31:09.073Z,145
2018-08-24T15:32:17.719Z,150
2018-08-24T15:33:26.373Z,155
2018-08-24T15:34:35.020Z,160
2018-08-24T15:35:43.665Z,165
2018-08-24T15:36:52.311Z,170
2018-08-24T15:38:00.959Z,170
2018-08-24T15:39:09.615Z,170
2018-08-24T15:40:18.271Z,170
2018-08-24T15:41:26.921Z,170
2018-08-24T15:42:35.565Z,165
2018-08-24T15:43:44.486Z,155
2018-08-24T15:44:53.137Z,150
2018-08-24T15:46:01.790Z,135
2018-08-24T15:47:10.436Z,115
2018-08-24T15:48:19.089Z,100
2018-08-24T15:49:27.736Z,95
2018-08-24T15:50:36.386Z,90
2018-08-24T15:51:45.031Z,80
2018-08-24T15:52:53.681Z,75
2018-08-24T15:54:02.329Z,70
2018-08-24T15:55:10.990Z,75
2018-08-24T15:56:19.629Z,80
2018-08-24T15:57:28.278Z,85
2018-08-24T15:58:36.924Z,90
2018-08-24T15:59:45.838Z,95
2018-08-24T16:00:54.755Z,105
2018-08-24T16:02:03.669Z,105
2018-08-24T16:03:12.317Z,105
2018-08-24T16:04:20.965Z,105
2018-08-24T16:05:29.886Z,100
2018-08-24T16:06:38.529Z,100
2018-08-24T16:07:47.181Z,100
2018-08-24T16:08:55.828Z,100
2018-08-24T16:10:04.742Z,100
2018-08-24T16:11:13.393Z,105
2018-08-24T16:12:22.921Z,105